createdAt,value
2019-04-10T00:00:37.353Z,100469.23
2019-04-10T00:03:06.482Z,100466.59
2019-04-10T00:05:36.086Z,100467.39
2019-04-10T00:08:06.023Z,100466.49
2019-04-10T00:10:34.726Z,100468.92
2019-04-10T00:13:04.505Z,100467.70
2019-04-10T00:15:33.035Z,100479.75
2019-04-10T00:18:01.943Z,100480.56
2019-04-10T00:20:30.632Z,100481.77
2019-04-10T00:22:59.066Z,100486.78
2019-04-10T00:25:28.420Z,100489.77
2019-04-10T00:27:57.025Z,100492.42
2019-04-10T00:30:25.440Z,100489.48
2019-04-10T00:32:54.417Z,100484.87
2019-04-10T00:35:23.577Z,100490.41
2019-04-10T00:37:53.718Z,100491.67
2019-04-10T00:40:22.145Z,100489.92
2019-04-10T00:42:51.531Z,100487.69
2019-04-10T00:45:20.314Z,100477.42
2019-04-10T00:47:48.747Z,100476.45
2019-04-10T00:50:18.179Z,100473.71
2019-04-10T00:52:46.705Z,100477.05
2019-04-10T00:55:15.345Z,100474.45
2019-04-10T00:57:44.203Z,100477.02
2019-04-10T01:00:12.878Z,100472.20
2019-04-10T01:02:41.258Z,100477.74
2019-04-10T01:05:10.999Z,100473.39
2019-04-10T01:07:42.744Z,100485.03
2019-04-10T01:10:10.494Z,100478.19
2019-04-10T01:12:38.984Z,100485.45
2019-04-10T01:15:08.342Z,100483.23
2019-04-10T01:17:36.879Z,100484.98
2019-04-10T01:20:07.159Z,100491.27
2019-04-10T01:22:35.622Z,100490.30
2019-04-10T01:25:06.134Z,100483.38
2019-04-10T01:27:34.794Z,100480.52
2019-04-10T01:30:04.297Z,100482.54
2019-04-10T01:32:34.164Z,100474.63
2019-04-10T01:35:02.746Z,100482.12
2019-04-10T01:37:31.210Z,100477.95
2019-04-10T01:39:59.655Z,100476.69
2019-04-10T01:42:28.524Z,100475.81
2019-04-10T01:44:57.333Z,100471.61
2019-04-10T01:47:26.930Z,100469.34
2019-04-10T01:49:55.826Z,100474.02
2019-04-10T01:52:24.798Z,100465.94
2019-04-10T01:54:56.183Z,100465.39
2019-04-10T01:57:24.600Z,100463.67
2019-04-10T01:59:53.032Z,100464.35
2019-04-10T02:02:23.476Z,100464.27
2019-04-10T02:04:53.708Z,100462.00
2019-04-10T02:07:23.033Z,100468.77
2019-04-10T02:09:51.889Z,100472.09
2019-04-10T02:12:20.740Z,100483.36
2019-04-10T02:14:49.346Z,100482.00
2019-04-10T02:17:17.840Z,100476.12
2019-04-10T02:19:46.269Z,100474.02
2019-04-10T02:22:14.717Z,100479.81
2019-04-10T02:24:43.904Z,100475.16
2019-04-10T02:27:12.354Z,100474.55
2019-04-10T02:29:41.953Z,100476.66
2019-04-10T02:32:12.047Z,100473.16
2019-04-10T02:34:41.486Z,100470.59
2019-04-10T02:37:11.070Z,100471.72
2019-04-10T02:39:46.172Z,100467.80
2019-04-10T02:42:10.169Z,100468.91
2019-04-10T02:44:38.814Z,100468.03
2019-04-10T02:47:07.282Z,100468.81
2019-04-10T02:49:36.442Z,100465.70
2019-04-10T02:52:06.644Z,100470.36
2019-04-10T02:54:35.768Z,100470.59
2019-04-10T02:57:05.508Z,100465.50
2019-04-10T02:59:35.167Z,100474.36
2019-04-10T03:02:04.290Z,100462.89
2019-04-10T03:04:33.136Z,100470.54
2019-04-10T03:07:02.059Z,100466.67
2019-04-10T03:09:46.029Z,100468.67
2019-04-10T03:12:01.273Z,100470.39
2019-04-10T03:14:30.095Z,100465.30
2019-04-10T03:16:59.788Z,100462.65
2019-04-10T03:19:28.382Z,100466.78
2019-04-10T03:21:57.690Z,100459.75
2019-04-10T03:24:27.452Z,100459.59
2019-04-10T03:26:56.221Z,100459.97
2019-04-10T03:29:24.643Z,100459.12
2019-04-10T03:31:55.422Z,100466.69
2019-04-10T03:34:28.085Z,100465.44
2019-04-10T03:36:56.060Z,100459.45
2019-04-10T03:39:25.686Z,100459.82
2019-04-10T03:41:54.742Z,100457.36
2019-04-10T03:44:23.648Z,100453.67
2019-04-10T03:46:53.782Z,100454.94
2019-04-10T03:49:23.335Z,100457.66
2019-04-10T03:51:52.684Z,100447.48
2019-04-10T03:54:21.469Z,100447.01
2019-04-10T03:56:50.044Z,100453.30
2019-04-10T03:59:18.497Z,100449.90
2019-04-10T04:01:47.238Z,100450.64
2019-04-10T04:04:17.416Z,100452.70
2019-04-10T04:06:46.092Z,100459.87
2019-04-10T04:09:15.059Z,100457.36
2019-04-10T04:11:44.633Z,100466.78
2019-04-10T04:14:13.184Z,100472.30
2019-04-10T04:16:41.608Z,100477.37
2019-04-10T04:19:10.186Z,100478.73
2019-04-10T04:21:39.622Z,100480.52
2019-04-10T04:24:09.383Z,100474.27
2019-04-10T04:26:38.026Z,100474.55
2019-04-10T04:29:07.425Z,100481.21
2019-04-10T04:31:36.274Z,100483.31
2019-04-10T04:34:04.793Z,100481.73
2019-04-10T04:36:33.232Z,100478.80
2019-04-10T04:39:13.532Z,100487.71
2019-04-10T04:41:31.907Z,100489.76
2019-04-10T04:44:00.335Z,100494.02
2019-04-10T04:46:28.863Z,100500.81
2019-04-10T04:48:57.745Z,100495.73
2019-04-10T04:51:27.296Z,100493.31
2019-04-10T04:53:56.917Z,100506.28
2019-04-10T04:56:26.138Z,100509.27
2019-04-10T04:58:55.764Z,100511.36
2019-04-10T05:01:24.525Z,100513.27
2019-04-10T05:03:52.945Z,100519.57
2019-04-10T05:06:22.266Z,100528.84
2019-04-10T05:08:51.042Z,100531.57
2019-04-10T05:11:20.448Z,100530.31
2019-04-10T05:13:49.232Z,100526.48
2019-04-10T05:16:18.638Z,100535.30
2019-04-10T05:18:47.710Z,100545.27
2019-04-10T05:21:17.064Z,100542.70
2019-04-10T05:23:46.819Z,100543.38
2019-04-10T05:26:16.538Z,100545.74
2019-04-10T05:28:45.355Z,100548.91
2019-04-10T05:31:13.889Z,100545.89
2019-04-10T05:33:43.623Z,100551.36
2019-04-10T05:36:13.196Z,100553.58
2019-04-10T05:38:43.987Z,100544.33
2019-04-10T05:41:13.356Z,100549.42
2019-04-10T05:43:42.590Z,100546.48
2019-04-10T05:46:12.302Z,100557.29
2019-04-10T05:48:41.914Z,100558.03
2019-04-10T05:51:10.460Z,100558.07
2019-04-10T05:53:38.895Z,100557.38
2019-04-10T05:56:07.383Z,100562.84
2019-04-10T05:58:35.802Z,100561.36
2019-04-10T06:01:06.021Z,100558.25
2019-04-10T06:03:34.575Z,100568.28
2019-04-10T06:06:04.096Z,100559.23
2019-04-10T06:08:33.319Z,100560.83
2019-04-10T06:11:01.894Z,100553.72
2019-04-10T06:13:30.438Z,100560.69
2019-04-10T06:15:59.362Z,100555.45
2019-04-10T06:18:29.012Z,100555.88
2019-04-10T06:20:58.710Z,100555.83
2019-04-10T06:23:27.618Z,100556.02
2019-04-10T06:25:56.378Z,100556.58
2019-04-10T06:28:26.220Z,100567.93
2019-04-10T06:30:54.993Z,100566.11
2019-04-10T06:33:24.146Z,100570.40
2019-04-10T06:35:53.685Z,100571.41
2019-04-10T06:38:23.108Z,100568.03
2019-04-10T06:40:52.377Z,100577.44
2019-04-10T06:43:22.233Z,100573.73
2019-04-10T06:45:52.313Z,100569.68
2019-04-10T06:48:21.160Z,100573.67
2019-04-10T06:50:49.579Z,100570.89
2019-04-10T06:53:18.705Z,100579.27
2019-04-10T06:55:47.206Z,100577.67
2019-04-10T06:58:18.672Z,100580.05
2019-04-10T07:00:51.665Z,100586.30
2019-04-10T07:03:17.338Z,100593.16
2019-04-10T07:06:00.447Z,100597.09
2019-04-10T07:08:19.000Z,100600.83
2019-04-10T07:10:54.177Z,100606.05
2019-04-10T07:13:17.538Z,100606.09
2019-04-10T07:15:46.962Z,100598.44
2019-04-10T07:18:18.562Z,100602.46
2019-04-10T07:20:46.175Z,100610.33
2019-04-10T07:23:22.463Z,100605.80
2019-04-10T07:25:47.260Z,100615.56
2019-04-10T07:28:17.407Z,100613.93
2019-04-10T07:30:46.050Z,100614.62
2019-04-10T07:33:16.673Z,100619.06
2019-04-10T07:35:44.657Z,100616.95
2019-04-10T07:38:13.953Z,100609.97
2019-04-10T07:40:42.929Z,100618.66
2019-04-10T07:43:11.405Z,100621.56
2019-04-10T07:45:39.896Z,100624.11
2019-04-10T07:48:08.733Z,100628.39
2019-04-10T07:50:37.333Z,100622.89
2019-04-10T07:53:06.157Z,100633.43
2019-04-10T07:55:34.805Z,100633.93
2019-04-10T07:58:03.227Z,100633.48
2019-04-10T08:00:32.043Z,100628.38
2019-04-10T08:03:00.554Z,100637.63
2019-04-10T08:05:29.581Z,100639.22
2019-04-10T08:07:59.081Z,100640.75
2019-04-10T08:10:28.428Z,100638.42
2019-04-10T08:12:58.083Z,100641.72
2019-04-10T08:15:27.324Z,100642.39
2019-04-10T08:17:56.162Z,100645.16
2019-04-10T08:20:24.665Z,100643.20
2019-04-10T08:22:53.322Z,100644.20
2019-04-10T08:25:22.811Z,100648.73
2019-04-10T08:27:52.262Z,100645.02
2019-04-10T08:30:20.936Z,100647.06
2019-04-10T08:32:57.149Z,100640.69
2019-04-10T08:35:19.537Z,100646.02
2019-04-10T08:37:48.702Z,100636.89
2019-04-10T08:40:17.645Z,100641.16
2019-04-10T08:42:47.501Z,100639.87
2019-04-10T08:45:16.817Z,100647.50
2019-04-10T08:47:45.380Z,100644.09
2019-04-10T08:50:13.988Z,100641.51
2019-04-10T08:52:42.499Z,100638.58
2019-04-10T08:55:10.986Z,100641.13
2019-04-10T08:57:39.463Z,100642.18
2019-04-10T09:00:08.540Z,100647.41
2019-04-10T09:02:38.139Z,100646.98
2019-04-10T09:05:11.249Z,100636.45
2019-04-10T09:07:40.157Z,100646.23
2019-04-10T09:10:08.882Z,100653.42
2019-04-10T09:12:37.326Z,100644.96
2019-04-10T09:15:07.835Z,100647.88
2019-04-10T09:17:37.623Z,100651.67
2019-04-10T09:20:08.793Z,100649.91
2019-04-10T09:23:04.411Z,100642.39
2019-04-10T09:25:09.118Z,100637.95
2019-04-10T09:27:37.985Z,100629.47
2019-04-10T09:30:08.811Z,100648.27
2019-04-10T09:32:37.574Z,100638.92
2019-04-10T09:35:08.792Z,100636.77
2019-04-10T09:37:38.065Z,100636.27
2019-04-10T09:40:09.008Z,100635.84
2019-04-10T09:42:37.597Z,100637.02
2019-04-10T09:45:06.967Z,100635.18
2019-04-10T09:47:35.798Z,100636.67
2019-04-10T09:50:05.876Z,100638.86
2019-04-10T09:52:35.481Z,100629.02
2019-04-10T09:55:07.373Z,100628.97
2019-04-10T09:57:36.727Z,100621.25
2019-04-10T10:00:07.673Z,100626.41
2019-04-10T10:02:36.110Z,100625.51
2019-04-10T10:05:06.318Z,100629.23
2019-04-10T10:07:34.873Z,100623.33
2019-04-10T10:10:05.025Z,100609.19
2019-04-10T10:12:34.362Z,100623.03
2019-04-10T10:15:03.756Z,100627.30
2019-04-10T10:17:32.826Z,100610.96
2019-04-10T10:20:01.913Z,100620.91
2019-04-10T10:22:30.939Z,100625.48
2019-04-10T10:25:00.533Z,100623.63
2019-04-10T10:27:30.082Z,100626.02
2019-04-10T10:30:02.086Z,100621.08
2019-04-10T10:32:30.933Z,100622.20
2019-04-10T10:34:59.390Z,100631.86
2019-04-10T10:37:28.408Z,100624.06
2019-04-10T10:39:57.122Z,100633.91
2019-04-10T10:42:25.659Z,100619.55
2019-04-10T10:44:54.452Z,100628.73
2019-04-10T10:47:24.127Z,100623.66
2019-04-10T10:49:52.887Z,100613.45
2019-04-10T10:52:21.626Z,100626.65
2019-04-10T10:54:50.037Z,100624.91
2019-04-10T10:57:19.355Z,100624.50
2019-04-10T10:59:47.918Z,100622.42
2019-04-10T11:02:17.129Z,100624.97
2019-04-10T11:04:45.689Z,100623.86
2019-04-10T11:07:14.491Z,100620.08
2019-04-10T11:09:44.418Z,100624.38
2019-04-10T11:12:13.623Z,100616.41
2019-04-10T11:14:42.098Z,100623.03
2019-04-10T11:17:11.898Z,100621.39
2019-04-10T11:19:41.245Z,100621.18
2019-04-10T11:22:12.698Z,100610.87
2019-04-10T11:24:41.268Z,100615.23
2019-04-10T11:27:11.860Z,100616.01
2019-04-10T11:29:42.559Z,100610.93
2019-04-10T11:32:11.758Z,100611.25
2019-04-10T11:34:40.794Z,100615.01
2019-04-10T11:37:23.105Z,100614.44
2019-04-10T11:42:10.202Z,100615.93
2019-04-10T11:44:39.679Z,100613.61
2019-04-10T11:47:10.495Z,100613.36
2019-04-10T11:49:42.870Z,100625.05
2019-04-10T11:52:10.557Z,100618.16
2019-04-10T11:54:41.355Z,100616.55
2019-04-10T11:57:10.122Z,100617.79
2019-04-10T11:59:41.050Z,100620.70
2019-04-10T12:02:10.290Z,100615.45
2019-04-10T12:04:48.128Z,100623.66
2019-04-10T12:07:36.038Z,100610.70
2019-04-10T12:12:11.226Z,100621.47
2019-04-10T12:14:39.865Z,100617.00
2019-04-10T12:17:09.669Z,100617.30
2019-04-10T12:19:38.387Z,100626.23
2019-04-10T12:22:07.554Z,100618.26
2019-04-10T12:24:36.396Z,100615.02
2019-04-10T12:27:04.942Z,100620.75
2019-04-10T12:29:33.469Z,100612.06
2019-04-10T12:32:01.907Z,100612.03
2019-04-10T12:34:30.347Z,100610.36
2019-04-10T12:36:58.919Z,100635.70
2019-04-10T12:39:28.006Z,100636.70
2019-04-10T12:41:57.517Z,100626.94
2019-04-10T12:44:26.683Z,100635.87
2019-04-10T12:46:55.142Z,100626.50
2019-04-10T12:49:23.603Z,100620.55
2019-04-10T12:51:52.125Z,100623.41
2019-04-10T12:54:21.603Z,100624.52
2019-04-10T12:56:50.566Z,100635.74
2019-04-10T12:59:19.426Z,100624.26
2019-04-10T13:01:48.969Z,100620.68
2019-04-10T13:04:18.024Z,100616.27
2019-04-10T13:06:46.676Z,100617.48
2019-04-10T13:09:15.965Z,100615.12
2019-04-10T13:11:44.889Z,100608.09
2019-04-10T13:14:13.390Z,100617.64
2019-04-10T13:16:42.850Z,100611.46
2019-04-10T13:19:11.534Z,100609.19
2019-04-10T13:21:39.963Z,100610.98
2019-04-10T13:24:09.137Z,100607.48
2019-04-10T13:26:37.952Z,100612.35
2019-04-10T13:29:06.455Z,100605.12
2019-04-10T13:31:35.145Z,100613.48
2019-04-10T13:34:04.852Z,100613.85
2019-04-10T13:36:33.649Z,100610.37
2019-04-10T13:39:02.381Z,100608.89
2019-04-10T13:41:31.039Z,100607.08
2019-04-10T13:44:00.306Z,100612.31
2019-04-10T13:46:29.015Z,100605.64
2019-04-10T13:48:57.691Z,100602.66
2019-04-10T13:51:26.113Z,100600.09
2019-04-10T13:53:55.250Z,100607.16
2019-04-10T13:56:25.278Z,100596.33
2019-04-10T13:58:53.923Z,100604.58
2019-04-10T14:01:25.207Z,100603.19
2019-04-10T14:03:54.449Z,100604.65
2019-04-10T14:06:23.064Z,100600.31
2019-04-10T14:09:08.150Z,100597.81
2019-04-10T14:11:22.175Z,100595.42
2019-04-10T14:13:51.830Z,100601.47
2019-04-10T14:16:21.019Z,100605.12
2019-04-10T14:18:50.780Z,100614.52
2019-04-10T14:21:20.667Z,100614.13
2019-04-10T14:23:49.437Z,100601.41
2019-04-10T14:26:42.000Z,100602.11
2019-04-10T14:29:02.271Z,100609.39
2019-04-10T14:31:32.291Z,100607.41
2019-04-10T14:34:01.673Z,100609.65
2019-04-10T14:36:30.318Z,100610.47
2019-04-10T14:39:10.212Z,100614.65
2019-04-10T14:41:29.660Z,100616.62
2019-04-10T14:43:58.094Z,100612.52
2019-04-10T14:46:26.633Z,100619.69
2019-04-10T14:48:55.219Z,100618.45
2019-04-10T14:51:25.073Z,100619.09
2019-04-10T14:53:53.568Z,100616.66
2019-04-10T14:56:22.164Z,100621.22
2019-04-10T14:58:53.599Z,100619.04
2019-04-10T15:01:22.186Z,100618.81
2019-04-10T15:03:50.849Z,100613.05
2019-04-10T15:06:21.513Z,100624.92
2019-04-10T15:08:50.286Z,100620.64
2019-04-10T15:11:19.376Z,100620.75
2019-04-10T15:13:48.731Z,100621.87
2019-04-10T15:16:17.539Z,100622.70
2019-04-10T15:18:46.107Z,100625.12
2019-04-10T15:21:14.822Z,100621.80
2019-04-10T15:23:43.329Z,100616.41
2019-04-10T15:26:13.506Z,100625.63
2019-04-10T15:28:43.614Z,100623.48
2019-04-10T15:31:12.234Z,100628.07
2019-04-10T15:33:42.756Z,100631.08
2019-04-10T15:36:12.951Z,100624.67
2019-04-10T15:38:42.155Z,100628.56
2019-04-10T15:41:10.797Z,100622.42
2019-04-10T15:43:39.370Z,100632.32
2019-04-10T15:46:08.736Z,100640.81
2019-04-10T15:48:37.705Z,100633.59
2019-04-10T15:51:06.432Z,100636.55
2019-04-10T15:53:34.991Z,100639.00
2019-04-10T15:56:03.569Z,100638.95
2019-04-10T15:58:33.281Z,100640.09
2019-04-10T16:01:02.457Z,100644.20
2019-04-10T16:03:30.866Z,100645.58
2019-04-10T16:05:59.299Z,100639.09
2019-04-10T16:08:28.820Z,100637.80
2019-04-10T16:10:58.945Z,100643.31
2019-04-10T16:13:36.656Z,100647.98
2019-04-10T16:16:07.306Z,100642.09
2019-04-10T16:18:36.666Z,100655.02
2019-04-10T16:21:06.296Z,100654.19
2019-04-10T16:23:42.564Z,100655.95
2019-04-10T16:26:11.195Z,100651.29
2019-04-10T16:28:39.760Z,100658.90
2019-04-10T16:31:08.180Z,100656.73
2019-04-10T16:33:36.629Z,100651.98
2019-04-10T16:36:05.376Z,100649.92
2019-04-10T16:38:33.879Z,100650.70
2019-04-10T16:41:02.795Z,100653.64
2019-04-10T16:43:32.645Z,100659.78
2019-04-10T16:46:01.402Z,100652.38
2019-04-10T16:48:29.873Z,100651.88
2019-04-10T16:51:01.621Z,100655.70
2019-04-10T16:53:30.230Z,100646.87
2019-04-10T16:55:59.053Z,100654.52
2019-04-10T16:58:27.659Z,100663.56
2019-04-10T17:00:56.075Z,100654.14
2019-04-10T17:03:25.363Z,100664.35
2019-04-10T17:05:54.002Z,100661.06
2019-04-10T17:08:22.413Z,100662.34
2019-04-10T17:10:52.383Z,100668.28
2019-04-10T17:13:21.103Z,100664.86
2019-04-10T17:15:50.325Z,100665.73
2019-04-10T17:18:21.148Z,100668.38
2019-04-10T17:20:50.928Z,100668.86
2019-04-10T17:23:20.566Z,100667.19
2019-04-10T17:25:50.660Z,100672.38
2019-04-10T17:28:22.025Z,100660.08
2019-04-10T17:30:49.854Z,100671.97
2019-04-10T17:33:18.678Z,100671.17
2019-04-10T17:35:47.559Z,100677.59
2019-04-10T17:38:16.221Z,100677.63
2019-04-10T17:40:50.546Z,100673.39
2019-04-10T17:43:15.056Z,100683.19
2019-04-10T17:45:44.863Z,100693.84
2019-04-10T17:48:14.139Z,100694.30
2019-04-10T17:50:43.762Z,100693.92
2019-04-10T17:53:13.350Z,100692.21
2019-04-10T17:55:44.066Z,100686.32
2019-04-10T17:58:13.671Z,100689.33
2019-04-10T18:00:45.312Z,100696.57
2019-04-10T18:03:17.983Z,100694.00
2019-04-10T18:05:44.732Z,100700.81
2019-04-10T18:08:13.509Z,100704.25
2019-04-10T18:10:51.154Z,100704.23
2019-04-10T18:13:18.804Z,100701.70
2019-04-10T18:15:48.365Z,100714.03
2019-04-10T18:18:17.769Z,100715.33
2019-04-10T18:20:46.704Z,100720.44
2019-04-10T18:23:15.547Z,100722.16
2019-04-10T18:25:44.460Z,100730.66
2019-04-10T18:28:13.867Z,100733.22
2019-04-10T18:30:42.441Z,100732.80
2019-04-10T18:33:12.089Z,100736.20
2019-04-10T18:35:40.969Z,100742.13
2019-04-10T18:38:09.485Z,100751.47
2019-04-10T18:40:39.201Z,100750.63
2019-04-10T18:43:07.989Z,100754.47
2019-04-10T18:45:37.938Z,100759.97
2019-04-10T18:48:08.266Z,100762.51
2019-04-10T18:50:37.245Z,100763.77
2019-04-10T18:53:06.099Z,100768.87
2019-04-10T18:55:34.659Z,100768.86
2019-04-10T18:58:05.413Z,100768.43
2019-04-10T19:00:52.167Z,100771.41
2019-04-10T19:03:25.947Z,100772.66
2019-04-10T19:06:00.310Z,100772.22
2019-04-10T19:08:30.072Z,100778.16
2019-04-10T19:11:10.561Z,100784.51
2019-04-10T19:13:29.108Z,100787.48
2019-04-10T19:15:57.561Z,100781.52
2019-04-10T19:18:25.998Z,100788.73
2019-04-10T19:20:56.579Z,100799.31
2019-04-10T19:23:25.492Z,100787.85
2019-04-10T19:25:54.701Z,100784.84
2019-04-10T19:28:32.225Z,100793.33
2019-04-10T19:31:11.888Z,100793.31
2019-04-10T19:33:37.367Z,100798.82
2019-04-10T19:36:06.263Z,100801.31
2019-04-10T19:38:35.656Z,100805.95
2019-04-10T19:41:04.794Z,100810.20
2019-04-10T19:43:34.667Z,100809.32
2019-04-10T19:46:06.212Z,100799.97
2019-04-10T19:48:35.222Z,100807.56
2019-04-10T19:51:03.765Z,100805.00
2019-04-10T19:53:33.757Z,100813.85
2019-04-10T19:56:02.465Z,100812.12
2019-04-10T19:58:32.465Z,100811.27
2019-04-10T20:01:01.122Z,100811.61
2019-04-10T20:03:29.949Z,100809.48
2019-04-10T20:06:00.302Z,100814.08
2019-04-10T20:08:29.025Z,100817.84
2019-04-10T20:10:58.237Z,100822.10
2019-04-10T20:13:27.020Z,100817.41
2019-04-10T20:15:55.666Z,100820.36
2019-04-10T20:18:24.573Z,100825.80
2019-04-10T20:20:53.370Z,100827.48
2019-04-10T20:23:21.863Z,100827.48
2019-04-10T20:25:50.562Z,100835.09
2019-04-10T20:28:20.612Z,100831.73
2019-04-10T20:30:52.235Z,100833.01
2019-04-10T20:33:20.789Z,100835.97
2019-04-10T20:35:50.770Z,100839.36
2019-04-10T20:38:27.256Z,100840.17
2019-04-10T20:44:23.114Z,100837.64
2019-04-10T20:46:52.778Z,100838.42
2019-04-10T20:49:22.480Z,100843.05
2019-04-10T20:51:51.397Z,100844.30
2019-04-10T20:54:20.387Z,100842.62
2019-04-10T20:56:50.646Z,100845.97
2019-04-10T20:59:26.461Z,100853.58
2019-04-10T21:01:55.803Z,100859.11
2019-04-10T21:04:25.440Z,100855.28
2019-04-10T21:06:56.595Z,100860.73
2019-04-10T21:09:27.665Z,100856.06
2019-04-10T21:12:03.863Z,100864.52
2019-04-10T21:14:28.121Z,100865.79
2019-04-10T21:17:05.221Z,100859.89
2019-04-10T21:19:33.848Z,100865.00
2019-04-10T21:22:03.692Z,100869.61
2019-04-10T21:24:33.601Z,100867.03
2019-04-10T21:27:03.582Z,100867.47
2019-04-10T21:29:50.556Z,100875.44
2019-04-10T21:32:30.341Z,100877.56
2019-04-10T21:35:02.076Z,100875.83
2019-04-10T21:37:30.726Z,100883.86
2019-04-10T21:40:00.395Z,100880.00
2019-04-10T21:42:29.778Z,100874.53
2019-04-10T21:44:58.316Z,100879.54
2019-04-10T21:47:27.709Z,100881.60
2019-04-10T21:49:56.907Z,100884.17
2019-04-10T21:52:25.710Z,100886.33
2019-04-10T21:54:57.826Z,100881.16
2019-04-10T21:57:24.465Z,100884.92
2019-04-10T21:59:53.836Z,100877.67
2019-04-10T22:02:23.825Z,100887.80
2019-04-10T22:04:52.661Z,100879.77
2019-04-10T22:07:34.828Z,100884.40
2019-04-10T22:10:08.217Z,100889.08
2019-04-10T22:12:42.187Z,100887.73
2019-04-10T22:15:12.857Z,100884.75
2019-04-10T22:17:42.550Z,100888.58
2019-04-10T22:20:11.739Z,100881.77
2019-04-10T22:22:40.440Z,100888.53
2019-04-10T22:25:10.959Z,100887.63
2019-04-10T22:27:39.656Z,100895.72
2019-04-10T22:30:08.852Z,100899.52
2019-04-10T22:32:37.358Z,100900.41
2019-04-10T22:35:07.383Z,100901.74
2019-04-10T22:37:36.009Z,100901.61
2019-04-10T22:40:06.563Z,100906.66
2019-04-10T22:42:42.544Z,100907.81
2019-04-10T22:45:08.296Z,100903.53
2019-04-10T22:47:36.733Z,100906.55
2019-04-10T22:50:06.235Z,100905.67
2019-04-10T22:52:34.708Z,100911.20
2019-04-10T22:55:03.718Z,100917.11
2019-04-10T22:57:32.503Z,100915.42
2019-04-10T23:00:00.945Z,100914.16
2019-04-10T23:02:29.943Z,100919.23
2019-04-10T23:04:59.715Z,100924.78
2019-04-10T23:07:28.567Z,100929.88
2019-04-10T23:09:57.109Z,100926.47
2019-04-10T23:12:26.556Z,100924.33
2019-04-10T23:14:55.418Z,100929.83
2019-04-10T23:17:24.364Z,100929.83
2019-04-10T23:19:54.195Z,100935.72
2019-04-10T23:22:23.118Z,100930.19
2019-04-10T23:24:51.908Z,100936.11
2019-04-10T23:27:21.626Z,100935.30
2019-04-10T23:29:50.664Z,100935.77
2019-04-10T23:32:19.476Z,100939.55
2019-04-10T23:34:49.300Z,100946.80
2019-04-10T23:37:18.400Z,100945.59
2019-04-10T23:39:48.233Z,100949.84
2019-04-10T23:42:16.756Z,100956.61
2019-04-10T23:44:45.201Z,100944.34
2019-04-10T23:47:13.839Z,100956.61
2019-04-10T23:49:42.339Z,100951.11
2019-04-10T23:52:11.734Z,100952.41
2019-04-10T23:54:43.592Z,100952.80
2019-04-10T23:57:12.107Z,100955.81
2019-04-10T23:59:40.637Z,100955.39
